Jump to content

ATIS Editor not parsing METAR cloud strings correctly


Recommended Posts

G'day (Again),

I think this is only a relatively new bug, but it looks like ATIS is not parsing correctly at the moment.

As you can see from attached, the cloud has multiple components but only one is coming up. Every so often, it will show an update when it's just the cloud with the one value.

Thanks,

Adam.

image.png.aa371cff9e28c2c11ef97b9b922d0487.png

Link to post
Share on other sites

That's a bit of a doh moment in that one (didn't look hard enough at the screenshot for the specific example).

I did see one cloud observation not come through which is what triggered my first look at it.  Cumulonimbus cloud observed 4000ft (METAR string below) did not show up on the clouds line - it only showed the cloud at 3000ft.

YSSY 040600Z 03022KT 9999 FEW030 BKN280 FEW040CB 26/19 Q1009 

 

Link to post
Share on other sites

Please sign in to comment

You will be able to leave a comment after signing in



Sign In Now
×
×
  • Create New...